createdAt,value
2019-01-16T00:00:51.577Z,5.70
2019-01-16T00:05:45.225Z,5.70
2019-01-16T00:10:56.984Z,5.70
2019-01-16T00:15:50.884Z,5.70
2019-01-16T00:20:47.278Z,5.70
2019-01-16T00:25:41.294Z,5.70
2019-01-16T00:30:35.513Z,5.70
2019-01-16T00:35:45.153Z,5.60
2019-01-16T00:40:55.437Z,5.60
2019-01-16T00:46:05.501Z,5.60
2019-01-16T00:51:02.446Z,5.60
2019-01-16T00:56:04.872Z,5.60
2019-01-16T01:00:58.704Z,5.60
2019-01-16T01:06:07.265Z,5.50
2019-01-16T01:11:01.016Z,5.50
2019-01-16T01:15:55.053Z,5.50
2019-01-16T01:20:48.812Z,5.50
2019-01-16T01:25:48.498Z,5.50
2019-01-16T01:30:48.046Z,5.40
2019-01-16T01:36:00.033Z,5.40
2019-01-16T01:41:05.716Z,5.40
2019-01-16T01:46:02.241Z,5.40
2019-01-16T01:50:56.199Z,5.40
2019-01-16T01:56:04.885Z,5.50
2019-01-16T02:01:04.448Z,5.40
2019-01-16T02:06:07.177Z,5.40
2019-01-16T02:11:06.808Z,5.40
2019-01-16T02:16:06.513Z,5.40
2019-01-16T02:21:06.362Z,5.30
2019-01-16T02:26:15.303Z,5.30
2019-01-16T02:31:12.072Z,5.20
2019-01-16T02:36:11.971Z,5.20
2019-01-16T02:41:21.785Z,5.20
2019-01-16T02:46:18.568Z,5.20
2019-01-16T02:51:21.213Z,5.20
2019-01-16T02:56:21.109Z,5.20
2019-01-16T03:01:15.165Z,5.10
2019-01-16T03:06:11.837Z,5.10
2019-01-16T03:11:05.518Z,5.10
2019-01-16T03:15:59.509Z,5.00
2019-01-16T03:20:59.238Z,5.00
2019-01-16T03:25:56.141Z,5.00
2019-01-16T03:31:06.492Z,5.00
2019-01-16T03:36:00.196Z,5.00
2019-01-16T03:40:57.065Z,5.00
2019-01-16T03:45:53.729Z,4.90
2019-01-16T03:50:47.789Z,4.90
2019-01-16T03:55:41.347Z,4.90
2019-01-16T04:00:43.817Z,4.90
2019-01-16T04:05:46.398Z,4.90
2019-01-16T04:10:56.240Z,4.90
2019-01-16T04:15:50.549Z,4.90
2019-01-16T04:20:56.728Z,4.90
2019-01-16T04:25:50.258Z,4.90
2019-01-16T04:30:49.782Z,4.90
2019-01-16T04:35:43.707Z,4.90
2019-01-16T04:40:43.120Z,4.80
2019-01-16T04:45:49.088Z,4.80
2019-01-16T04:51:00.861Z,4.80
2019-01-16T04:55:54.595Z,4.80
2019-01-16T05:00:50.888Z,4.80
2019-01-16T05:05:47.568Z,4.80
2019-01-16T05:10:53.069Z,4.80
2019-01-16T05:15:55.785Z,4.80
2019-01-16T05:21:04.833Z,4.80
2019-01-16T05:26:01.712Z,4.70
2019-01-16T05:30:57.989Z,4.80
2019-01-16T05:35:51.668Z,4.70
2019-01-16T05:41:00.354Z,4.70
2019-01-16T05:46:06.413Z,4.70
2019-01-16T05:51:03.225Z,4.70
2019-01-16T05:56:08.990Z,4.80
2019-01-16T06:01:14.823Z,4.80
2019-01-16T06:06:26.825Z,4.80
2019-01-16T06:11:23.482Z,4.80
2019-01-16T06:16:17.240Z,4.80
2019-01-16T06:21:27.077Z,4.80
2019-01-16T06:26:30.376Z,4.80
2019-01-16T06:31:27.235Z,4.80
2019-01-16T06:36:26.646Z,4.90
2019-01-16T06:41:37.975Z,4.90
2019-01-16T06:46:40.926Z,4.80
2019-01-16T06:51:35.013Z,4.80
2019-01-16T06:56:34.394Z,4.80
2019-01-16T07:01:28.113Z,4.80
2019-01-16T07:06:21.977Z,4.80
2019-01-16T07:11:15.711Z,4.80
2019-01-16T07:16:18.072Z,4.80
2019-01-16T07:21:14.708Z,4.80
2019-01-16T07:26:08.526Z,4.80
2019-01-16T07:31:02.324Z,4.80
2019-01-16T07:35:56.284Z,4.80
2019-01-16T07:41:05.520Z,4.80
2019-01-16T07:46:11.244Z,4.80
2019-01-16T07:51:16.973Z,4.90
2019-01-16T07:56:13.190Z,4.90
2019-01-16T08:01:12.944Z,4.90
2019-01-16T08:06:23.048Z,4.90
2019-01-16T08:11:19.803Z,5.00
2019-01-16T08:16:20.905Z,5.00
2019-01-16T08:21:15.168Z,5.20
2019-01-16T08:26:20.554Z,5.30
2019-01-16T08:31:14.783Z,5.30
2019-01-16T08:36:24.601Z,5.40
2019-01-16T08:41:18.677Z,5.50
2019-01-16T08:46:12.473Z,5.70
2019-01-16T08:51:22.504Z,5.90
2019-01-16T08:56:31.572Z,6.00
2019-01-16T09:01:43.380Z,6.20
2019-01-16T09:06:49.214Z,6.20
2019-01-16T09:11:46.247Z,6.30
2019-01-16T09:16:42.941Z,6.30
2019-01-16T09:21:36.997Z,6.40
2019-01-16T09:26:46.772Z,6.70
2019-01-16T09:31:55.845Z,7.10
2019-01-16T09:36:49.913Z,7.20
2019-01-16T09:41:46.470Z,7.20
2019-01-16T09:46:43.090Z,7.10
2019-01-16T09:51:39.981Z,7.00
2019-01-16T09:56:42.661Z,6.90
2019-01-16T10:01:36.613Z,6.80
2019-01-16T10:06:30.473Z,6.70
2019-01-16T10:11:32.744Z,6.80
2019-01-16T10:16:42.417Z,7.00
2019-01-16T10:21:42.046Z,7.20
2019-01-16T10:26:51.869Z,7.40
2019-01-16T10:31:57.414Z,7.60
2019-01-16T10:37:09.048Z,7.70
2019-01-16T10:42:05.402Z,7.60
2019-01-16T10:47:11.369Z,7.60
2019-01-16T10:52:11.309Z,7.40
2019-01-16T10:57:05.301Z,7.40
2019-01-16T11:01:59.112Z,7.50
2019-01-16T11:06:55.337Z,7.60
2019-01-16T11:11:54.945Z,8.00
2019-01-16T11:17:04.967Z,8.30
2019-01-16T11:22:05.058Z,8.40
2019-01-16T11:27:16.640Z,8.40
2019-01-16T11:32:16.352Z,8.30
2019-01-16T11:37:10.307Z,8.40
2019-01-16T11:42:04.190Z,8.40
2019-01-16T11:47:00.734Z,8.30
2019-01-16T11:51:57.148Z,8.50
2019-01-16T11:56:50.877Z,8.60
2019-01-16T12:01:47.278Z,8.60
2019-01-16T12:06:41.102Z,8.60
2019-01-16T12:11:35.118Z,8.50
2019-01-16T12:16:29.076Z,8.60
2019-01-16T12:21:37.653Z,8.50
2019-01-16T12:26:34.205Z,8.50
2019-01-16T12:31:30.710Z,8.50
2019-01-16T12:36:36.429Z,8.60
2019-01-16T12:41:42.115Z,8.60
2019-01-16T12:46:41.603Z,8.60
2019-01-16T12:51:38.520Z,8.60
2019-01-16T12:56:40.937Z,8.60
2019-01-16T13:01:40.624Z,8.50
2019-01-16T13:06:34.285Z,8.40
2019-01-16T13:11:40.122Z,8.30
2019-01-16T13:16:45.875Z,8.20
2019-01-16T13:21:40.115Z,8.00
2019-01-16T13:26:50.185Z,7.90
2019-01-16T13:31:43.894Z,7.90
2019-01-16T13:36:40.286Z,7.90
2019-01-16T13:41:51.650Z,7.80
2019-01-16T13:46:47.987Z,7.60
2019-01-16T13:51:50.213Z,7.50
2019-01-16T13:56:49.713Z,7.50
2019-01-16T14:02:01.536Z,7.60
2019-01-16T14:07:04.357Z,7.50
2019-01-16T14:12:10.005Z,7.50
2019-01-16T14:17:04.097Z,7.50
2019-01-16T14:22:07.053Z,7.40
2019-01-16T14:27:00.924Z,7.40
2019-01-16T14:31:57.381Z,7.30
2019-01-16T14:37:00.437Z,7.20
2019-01-16T14:42:10.344Z,7.10
2019-01-16T14:47:04.244Z,7.00
2019-01-16T14:52:01.085Z,6.80
2019-01-16T14:57:13.057Z,6.70
2019-01-16T15:02:23.402Z,6.60
2019-01-16T15:07:33.420Z,6.50
2019-01-16T15:12:45.150Z,6.40
2019-01-16T15:17:48.164Z,6.30
2019-01-16T15:22:42.344Z,6.10
2019-01-16T15:27:35.813Z,6.00
2019-01-16T15:32:45.507Z,5.90
2019-01-16T15:37:39.290Z,5.80
2019-01-16T15:42:48.679Z,5.70
2019-01-16T15:47:48.260Z,5.60
2019-01-16T15:52:42.044Z,5.40
2019-01-16T15:57:50.919Z,5.30
2019-01-16T16:02:46.841Z,5.10
2019-01-16T16:07:40.387Z,5.00
2019-01-16T16:12:34.369Z,4.90
2019-01-16T16:17:40.002Z,4.80
2019-01-16T16:22:33.811Z,4.70
2019-01-16T16:27:27.573Z,4.60
2019-01-16T16:32:37.106Z,4.50
2019-01-16T16:37:43.181Z,4.40
2019-01-16T16:42:42.877Z,4.30
2019-01-16T16:47:36.630Z,4.30
2019-01-16T16:52:35.923Z,4.30
2019-01-16T16:57:29.975Z,4.20
2019-01-16T17:02:29.674Z,4.20
2019-01-16T17:07:29.639Z,4.20
2019-01-16T17:12:38.351Z,4.20
2019-01-16T17:17:41.645Z,4.10
2019-01-16T17:22:38.357Z,4.10
2019-01-16T17:27:32.326Z,4.10
2019-01-16T17:32:32.459Z,4.00
2019-01-16T17:37:42.366Z,4.00
2019-01-16T17:42:53.884Z,3.90
2019-01-16T17:48:02.700Z,3.90
2019-01-16T17:52:59.594Z,3.80
2019-01-16T17:57:56.548Z,3.80
2019-01-16T18:02:56.279Z,3.80
2019-01-16T18:07:50.000Z,3.70
2019-01-16T18:12:46.765Z,3.70
2019-01-16T18:17:43.649Z,3.60
2019-01-16T18:22:37.664Z,3.50
2019-01-16T18:27:47.649Z,3.50
2019-01-16T18:32:47.792Z,3.40
2019-01-16T18:37:49.856Z,3.30
2019-01-16T18:42:43.542Z,3.30
2019-01-16T18:47:53.397Z,3.30
2019-01-16T18:52:51.867Z,3.30
2019-01-16T18:57:48.118Z,3.20
2019-01-16T19:02:50.842Z,3.30
2019-01-16T19:08:02.725Z,3.30
2019-01-16T19:12:56.855Z,3.30
2019-01-16T19:17:53.511Z,3.30
2019-01-16T19:22:58.079Z,3.40
2019-01-16T19:27:51.464Z,3.50
2019-01-16T19:32:47.777Z,3.60
2019-01-16T19:37:44.238Z,3.70
2019-01-16T19:42:46.851Z,3.90
2019-01-16T19:47:40.677Z,4.10
2019-01-16T19:52:40.217Z,4.30
2019-01-16T19:57:48.812Z,4.30
2019-01-16T20:02:58.683Z,4.40
2019-01-16T20:07:55.529Z,4.50
2019-01-16T20:12:58.314Z,4.70
2019-01-16T20:17:52.061Z,4.80
2019-01-16T20:22:49.205Z,5.00
2019-01-16T20:27:42.796Z,5.20
2019-01-16T20:32:36.306Z,5.30
2019-01-16T20:37:42.138Z,5.30
2019-01-16T20:42:35.794Z,5.40
2019-01-16T20:47:29.861Z,5.40
2019-01-16T20:52:35.821Z,5.50
2019-01-16T20:57:35.862Z,5.50
2019-01-16T21:02:29.681Z,5.60
2019-01-16T21:07:26.256Z,5.60
2019-01-16T21:12:20.205Z,5.60
2019-01-16T21:17:30.305Z,5.60
2019-01-16T21:22:42.377Z,5.60
2019-01-16T21:27:33.927Z,5.60
2019-01-16T21:32:27.937Z,5.60
2019-01-16T21:37:27.279Z,5.70
2019-01-16T21:42:33.045Z,5.70
2019-01-16T21:47:36.564Z,5.70
2019-01-16T21:52:42.364Z,5.60
2019-01-16T21:57:44.589Z,5.60
2019-01-16T22:02:44.306Z,5.60
2019-01-16T22:07:40.964Z,5.70
2019-01-16T22:12:50.844Z,5.70
2019-01-16T22:17:47.702Z,5.70
2019-01-16T22:22:47.272Z,5.70
2019-01-16T22:27:53.164Z,5.70
2019-01-16T22:32:55.665Z,5.80
2019-01-16T22:38:04.025Z,5.80
2019-01-16T22:42:58.024Z,5.80
2019-01-16T22:48:00.182Z,5.80
2019-01-16T22:53:09.901Z,5.80
2019-01-16T22:58:03.996Z,5.80
2019-01-16T23:03:00.805Z,5.90
2019-01-16T23:08:06.598Z,5.90
2019-01-16T23:13:09.377Z,5.80
2019-01-16T23:18:12.302Z,5.70
2019-01-16T23:23:18.336Z,5.70
2019-01-16T23:28:17.801Z,5.70
2019-01-16T23:33:14.307Z,5.80
2019-01-16T23:38:23.934Z,5.90
2019-01-16T23:43:23.885Z,5.90
2019-01-16T23:48:23.440Z,5.80
2019-01-16T23:53:17.409Z,5.80
2019-01-16T23:58:11.261Z,5.80
